createdAt,value
2022-11-25T00:02:52.941Z,5.610657
2022-11-25T00:06:18.023Z,5.741577
2022-11-25T00:09:43.320Z,5.741577
2022-11-25T00:13:08.612Z,5.78186
2022-11-25T00:16:33.929Z,5.812073
2022-11-25T00:19:59.107Z,5.751648
2022-11-25T00:23:26.053Z,5.761719
2022-11-25T00:26:49.639Z,5.761719
2022-11-25T00:30:14.901Z,5.78186
2022-11-25T00:33:40.101Z,5.671082
2022-11-25T00:37:05.335Z,5.459595
2022-11-25T00:40:30.579Z,5.348816
2022-11-25T00:43:55.813Z,5.177612
2022-11-25T00:47:21.124Z,5.1474
2022-11-25T00:50:46.328Z,5.117188
2022-11-25T00:54:11.590Z,5.217896
2022-11-25T00:57:36.798Z,5.27832
2022-11-25T01:01:02.075Z,5.429382
2022-11-25T01:04:27.230Z,5.429382
2022-11-25T01:07:52.518Z,5.389099
2022-11-25T01:11:17.717Z,5.389099
2022-11-25T01:14:42.943Z,5.389099
2022-11-25T01:18:08.199Z,5.358887
2022-11-25T01:21:33.471Z,5.308533
2022-11-25T01:24:58.723Z,5.358887
2022-11-25T01:28:23.968Z,5.389099
2022-11-25T01:31:49.293Z,5.298462
2022-11-25T01:35:14.463Z,5.298462
2022-11-25T01:38:39.781Z,5.248108
2022-11-25T01:42:05.020Z,5.26825
2022-11-25T01:45:30.299Z,5.197754
2022-11-25T01:48:55.559Z,5.177612
2022-11-25T01:52:20.795Z,5.066833
2022-11-25T01:55:46.070Z,5.02655
2022-11-25T01:59:11.269Z,4.905701
2022-11-25T02:02:36.546Z,4.804993
2022-11-25T02:06:01.736Z,4.734497
2022-11-25T02:09:26.943Z,4.674072
2022-11-25T02:12:52.209Z,4.623718
2022-11-25T02:16:17.461Z,4.502869
2022-11-25T02:19:42.680Z,4.452515
2022-11-25T02:23:07.889Z,4.583435
2022-11-25T02:26:33.106Z,4.664001
2022-11-25T02:29:58.372Z,4.784851
2022-11-25T02:33:23.620Z,4.855347
2022-11-25T02:36:48.886Z,4.956055
2022-11-25T02:40:14.119Z,5.036621
2022-11-25T02:43:39.320Z,5.1474
2022-11-25T02:47:04.551Z,5.248108
2022-11-25T02:50:29.800Z,5.308533
2022-11-25T02:53:55.113Z,5.358887
2022-11-25T02:57:20.393Z,5.479736
2022-11-25T03:00:45.766Z,5.570374
2022-11-25T03:04:10.905Z,5.640869
2022-11-25T03:07:36.176Z,5.65094
2022-11-25T03:11:01.398Z,5.671082
2022-11-25T03:14:26.656Z,5.671082
2022-11-25T03:17:51.872Z,5.53009
2022-11-25T03:21:17.125Z,5.459595
2022-11-25T03:24:42.353Z,5.479736
2022-11-25T03:28:07.648Z,5.509949
2022-11-25T03:31:32.917Z,5.509949
2022-11-25T03:34:58.125Z,5.429382
2022-11-25T03:38:23.429Z,5.419312
2022-11-25T03:41:48.654Z,5.358887
2022-11-25T03:45:13.852Z,5.328674
2022-11-25T03:48:39.080Z,5.27832
2022-11-25T03:52:04.296Z,5.328674
2022-11-25T03:55:29.549Z,5.308533
2022-11-25T03:58:54.786Z,5.389099
2022-11-25T04:02:20.043Z,5.429382
2022-11-25T04:05:45.269Z,5.489807
2022-11-25T04:09:10.527Z,5.540161
2022-11-25T04:12:35.799Z,5.479736
2022-11-25T04:16:01.013Z,5.489807
2022-11-25T04:19:26.227Z,5.459595
2022-11-25T04:22:51.528Z,5.358887
2022-11-25T04:26:16.786Z,5.419312
2022-11-25T04:29:42.049Z,5.429382
2022-11-25T04:33:07.317Z,5.389099
2022-11-25T04:36:32.583Z,5.389099
2022-11-25T04:39:57.794Z,5.358887
2022-11-25T04:43:23.039Z,5.238037
2022-11-25T04:46:48.319Z,5.097046
2022-11-25T04:50:13.457Z,5.036621
2022-11-25T04:53:38.703Z,5.056763
2022-11-25T04:57:03.969Z,5.066833
2022-11-25T05:00:29.231Z,5.016479
2022-11-25T05:03:57.440Z,4.986267
2022-11-25T05:07:19.740Z,4.905701
2022-11-25T05:10:44.936Z,4.885559
2022-11-25T05:14:10.196Z,4.956055
2022-11-25T05:17:35.483Z,4.935913
2022-11-25T05:21:00.748Z,4.885559
2022-11-25T05:24:25.973Z,4.855347
2022-11-25T05:27:51.187Z,4.815063
2022-11-25T05:31:16.459Z,4.77478
2022-11-25T05:34:41.612Z,4.694214
2022-11-25T05:38:06.837Z,4.623718
2022-11-25T05:41:32.019Z,4.583435
2022-11-25T05:44:57.231Z,4.603577
2022-11-25T05:48:22.448Z,4.633789
2022-11-25T05:51:47.768Z,4.633789
2022-11-25T05:55:13.039Z,4.623718
2022-11-25T05:58:38.258Z,4.653931
2022-11-25T06:02:03.533Z,4.674072
2022-11-25T06:05:28.679Z,4.77478
2022-11-25T06:08:53.913Z,4.835205
2022-11-25T06:12:19.153Z,4.875488
2022-11-25T06:15:44.444Z,4.905701
2022-11-25T06:19:09.635Z,4.996338
2022-11-25T06:22:34.858Z,5.02655
2022-11-25T06:26:00.062Z,5.097046
2022-11-25T06:29:25.298Z,5.036621
2022-11-25T06:32:50.493Z,4.986267
2022-11-25T06:36:15.686Z,4.905701
2022-11-25T06:39:40.915Z,4.845276
2022-11-25T06:43:06.183Z,4.855347
2022-11-25T06:46:31.529Z,4.835205
2022-11-25T06:49:56.668Z,4.784851
2022-11-25T06:53:24.172Z,4.694214
2022-11-25T06:56:47.138Z,4.653931
2022-11-25T07:00:12.382Z,4.694214
2022-11-25T07:03:37.621Z,4.674072
2022-11-25T07:07:02.833Z,4.664001
2022-11-25T07:10:28.043Z,4.734497
2022-11-25T07:13:53.366Z,4.804993
2022-11-25T07:17:18.613Z,4.804993
2022-11-25T07:20:43.848Z,4.77478
2022-11-25T07:24:09.061Z,4.804993
2022-11-25T07:27:34.344Z,4.815063
2022-11-25T07:34:24.854Z,4.784851
2022-11-25T07:37:50.167Z,4.845276
2022-11-25T07:41:15.374Z,4.815063
2022-11-25T07:44:40.645Z,4.835205
2022-11-25T07:48:05.919Z,4.804993
2022-11-25T07:51:31.195Z,4.855347
2022-11-25T07:54:56.489Z,4.835205
2022-11-25T07:58:21.745Z,4.875488
2022-11-25T08:01:47.015Z,4.986267
2022-11-25T08:05:12.240Z,5.066833
2022-11-25T08:08:37.447Z,5.177612
2022-11-25T08:12:02.754Z,5.27832
2022-11-25T08:15:27.967Z,5.328674
2022-11-25T08:18:53.219Z,5.389099
2022-11-25T08:22:18.453Z,5.429382
2022-11-25T08:25:47.534Z,5.479736
2022-11-25T08:29:08.919Z,5.429382
2022-11-25T08:32:34.097Z,5.509949
2022-11-25T08:35:59.302Z,5.53009
2022-11-25T08:39:54.341Z,5.489807
2022-11-25T08:42:49.735Z,5.449524
2022-11-25T08:46:15.061Z,5.39917
2022-11-25T08:49:41.494Z,5.429382
2022-11-25T08:53:05.426Z,5.419312
2022-11-25T08:56:30.637Z,5.479736
2022-11-25T08:59:55.852Z,5.540161
2022-11-25T09:03:21.258Z,5.53009
2022-11-25T09:06:46.306Z,5.419312
2022-11-25T09:10:11.528Z,5.358887
2022-11-25T09:13:36.805Z,5.238037
2022-11-25T09:17:02.000Z,5.27832
2022-11-25T09:20:27.233Z,5.348816
2022-11-25T09:23:52.448Z,5.419312
2022-11-25T09:27:17.657Z,5.509949
2022-11-25T09:30:42.880Z,5.580444
2022-11-25T09:34:08.111Z,5.761719
2022-11-25T09:37:33.384Z,5.892639
2022-11-25T09:40:58.567Z,5.963135
2022-11-25T09:44:23.785Z,5.932922
2022-11-25T09:47:51.753Z,5.932922
2022-11-25T09:51:14.217Z,5.993347
2022-11-25T09:54:39.474Z,6.083984
2022-11-25T09:58:04.639Z,6.114197
2022-11-25T10:01:29.848Z,6.114197
2022-11-25T10:04:55.071Z,6.124268
2022-11-25T10:08:20.315Z,6.174622
2022-11-25T10:11:45.574Z,6.144409
2022-11-25T10:15:10.763Z,6.03363
2022-11-25T10:18:36.002Z,5.973206
2022-11-25T10:22:01.231Z,5.942993
2022-11-25T10:25:26.451Z,6.003418
2022-11-25T10:28:51.856Z,6.114197
2022-11-25T10:32:16.878Z,6.245117
2022-11-25T10:35:42.139Z,6.245117
2022-11-25T10:39:07.352Z,6.305542
2022-11-25T10:42:32.568Z,6.355896
2022-11-25T10:46:00.325Z,6.355896
2022-11-25T10:49:25.511Z,6.436462
2022-11-25T10:52:50.780Z,6.436462
2022-11-25T10:56:15.984Z,6.295471
2022-11-25T10:59:41.233Z,6.40625
2022-11-25T11:03:06.541Z,6.476746
2022-11-25T11:06:31.660Z,6.53717
2022-11-25T11:09:56.867Z,6.486816
2022-11-25T11:13:22.098Z,6.305542
2022-11-25T11:16:47.332Z,6.245117
2022-11-25T11:20:12.611Z,6.174622
2022-11-25T11:23:37.758Z,6.245117
2022-11-25T11:27:02.955Z,6.355896
2022-11-25T11:30:28.203Z,6.365967
2022-11-25T11:33:53.445Z,6.557312
2022-11-25T11:37:18.697Z,6.607666
2022-11-25T11:40:43.894Z,6.587524
2022-11-25T11:44:09.145Z,6.547241
2022-11-25T11:47:34.376Z,6.486816
2022-11-25T11:50:59.547Z,6.486816
2022-11-25T11:54:24.793Z,6.517029
2022-11-25T11:57:49.984Z,6.53717
2022-11-25T12:01:15.187Z,6.476746
2022-11-25T12:04:40.386Z,6.355896
2022-11-25T12:08:05.590Z,6.265259
2022-11-25T12:11:30.813Z,6.224976
2022-11-25T12:14:56.016Z,6.295471
2022-11-25T12:18:21.223Z,6.245117
2022-11-25T12:21:46.439Z,6.27533
2022-11-25T12:25:11.654Z,6.376038
2022-11-25T12:28:36.916Z,6.486816
2022-11-25T12:32:02.272Z,6.517029
2022-11-25T12:35:27.423Z,6.456604
2022-11-25T12:38:52.667Z,6.325684
2022-11-25T12:42:17.890Z,6.305542
2022-11-25T12:45:43.176Z,6.174622
2022-11-25T12:49:08.377Z,6.043701
2022-11-25T12:52:33.609Z,6.15448
2022-11-25T12:55:58.869Z,6.214905
2022-11-25T12:59:24.095Z,6.27533
2022-11-25T13:02:49.410Z,6.396179
2022-11-25T13:06:14.582Z,6.426392
2022-11-25T13:09:39.859Z,6.476746
2022-11-25T13:13:05.376Z,6.587524
2022-11-25T13:16:30.732Z,6.607666
2022-11-25T13:19:55.596Z,6.607666
2022-11-25T13:23:20.816Z,6.587524
2022-11-25T13:26:46.021Z,6.688232
2022-11-25T13:30:11.261Z,6.758728
2022-11-25T13:33:36.498Z,6.889648
2022-11-25T13:37:01.762Z,6.90979
2022-11-25T13:40:26.967Z,6.849365
2022-11-25T13:43:52.222Z,6.799011
2022-11-25T13:47:17.461Z,6.950073
2022-11-25T13:51:09.254Z,6.970215
2022-11-25T13:54:07.989Z,6.990356
2022-11-25T13:57:33.192Z,7.101135
2022-11-25T14:00:58.484Z,7.070923
2022-11-25T14:04:23.736Z,7.070923
2022-11-25T14:07:49.031Z,7.070923
2022-11-25T14:11:14.809Z,7.101135
2022-11-25T14:14:39.460Z,7.131348
2022-11-25T14:18:04.749Z,6.869507
2022-11-25T14:21:29.961Z,6.738586
2022-11-25T14:24:55.254Z,6.65802
2022-11-25T14:28:20.493Z,6.617737
2022-11-25T15:04:54.563Z,6.365967
2022-11-25T15:08:19.807Z,6.214905
2022-11-25T15:11:45.036Z,6.265259
2022-11-25T15:15:10.261Z,6.325684
2022-11-25T15:18:35.502Z,6.184692
2022-11-25T15:22:27.026Z,6.194763
2022-11-25T15:25:25.968Z,6.265259
2022-11-25T15:28:51.248Z,6.224976
2022-11-25T15:32:16.499Z,6.144409
2022-11-25T15:35:41.705Z,6.083984
2022-11-25T15:39:06.978Z,6.043701
2022-11-25T15:42:32.156Z,6.03363
2022-11-25T15:45:57.565Z,6.013489
2022-11-25T15:49:22.626Z,5.932922
2022-11-25T15:52:47.871Z,5.862427
2022-11-25T15:56:13.103Z,5.912781
2022-11-25T15:59:38.597Z,5.932922
2022-11-25T16:03:03.577Z,5.963135
2022-11-25T16:06:28.786Z,5.993347
2022-11-25T16:09:54.056Z,5.892639
2022-11-25T16:13:21.696Z,5.791931
2022-11-25T16:16:44.557Z,5.761719
2022-11-25T16:20:09.764Z,5.78186
2022-11-25T16:23:35.019Z,5.681152
2022-11-25T16:27:00.324Z,5.570374
2022-11-25T16:30:25.524Z,5.489807
2022-11-25T16:33:50.727Z,5.540161
2022-11-25T16:37:15.938Z,5.540161
2022-11-25T16:40:41.160Z,5.53009
2022-11-25T16:44:08.980Z,5.53009
2022-11-25T16:47:31.706Z,5.570374
2022-11-25T16:50:56.922Z,5.570374
2022-11-25T16:54:22.184Z,5.570374
2022-11-25T16:57:47.440Z,5.489807
2022-11-25T17:01:12.736Z,5.489807
2022-11-25T17:04:37.958Z,5.449524
2022-11-25T17:08:03.292Z,5.429382
2022-11-25T17:11:28.417Z,5.379028
2022-11-25T17:14:53.804Z,5.39917
2022-11-25T17:18:18.931Z,5.358887
2022-11-25T17:21:44.211Z,5.328674
2022-11-25T17:25:09.459Z,5.298462
2022-11-25T17:28:34.694Z,5.238037
2022-11-25T17:31:59.942Z,5.207825
2022-11-25T17:35:25.182Z,5.26825
2022-11-25T17:38:50.420Z,5.27832
2022-11-25T17:42:15.616Z,5.26825
2022-11-25T17:45:40.910Z,5.308533
2022-11-25T17:49:06.122Z,5.379028
2022-11-25T17:52:31.425Z,5.358887
2022-11-25T17:55:56.717Z,5.39917
2022-11-25T17:59:21.988Z,5.449524
2022-11-25T18:02:47.348Z,5.459595
2022-11-25T18:06:12.498Z,5.39917
2022-11-25T18:09:37.747Z,5.379028
2022-11-25T18:13:03.035Z,5.308533
2022-11-25T18:16:28.269Z,5.238037
2022-11-25T18:19:55.397Z,5.248108
2022-11-25T18:23:18.729Z,5.238037
2022-11-25T18:26:43.972Z,5.248108
2022-11-25T18:30:09.223Z,5.27832
2022-11-25T18:33:34.472Z,5.308533
2022-11-25T18:36:59.708Z,5.39917
2022-11-25T18:40:24.958Z,5.389099
2022-11-25T18:43:50.232Z,5.328674
2022-11-25T18:47:15.483Z,5.358887
2022-11-25T18:50:40.689Z,5.429382
2022-11-25T18:54:05.929Z,5.459595
2022-11-25T18:57:31.127Z,5.449524
2022-11-25T19:00:56.390Z,5.489807
2022-11-25T19:04:21.600Z,5.53009
2022-11-25T19:07:46.888Z,5.429382
2022-11-25T19:11:11.979Z,5.379028
2022-11-25T19:14:41.481Z,5.328674
2022-11-25T19:18:06.883Z,5.358887
2022-11-25T19:21:32.146Z,5.348816
2022-11-25T19:24:57.346Z,5.358887
2022-11-25T19:28:22.600Z,5.39917
2022-11-25T19:31:47.866Z,5.449524
2022-11-25T19:35:13.058Z,5.540161
2022-11-25T19:38:38.326Z,5.600586
2022-11-25T19:42:03.516Z,5.65094
2022-11-25T19:45:28.798Z,5.681152
2022-11-25T19:48:53.996Z,5.681152
2022-11-25T19:52:19.224Z,5.671082
2022-11-25T19:55:44.446Z,5.711365
2022-11-25T19:59:09.637Z,5.791931
2022-11-25T20:02:34.903Z,5.78186
2022-11-25T20:06:00.069Z,5.671082
2022-11-25T20:09:25.271Z,5.630798
2022-11-25T20:12:50.546Z,5.671082
2022-11-25T20:16:15.781Z,5.640869
2022-11-25T20:19:40.925Z,5.640869
2022-11-25T20:23:06.140Z,5.580444
2022-11-25T20:26:33.153Z,5.580444
2022-11-25T20:29:58.396Z,5.570374
2022-11-25T20:33:24.800Z,5.600586
2022-11-25T20:36:48.783Z,5.540161
2022-11-25T20:40:14.020Z,5.570374
2022-11-25T20:43:39.242Z,5.640869
2022-11-25T20:47:04.495Z,5.65094
2022-11-25T20:50:29.685Z,5.540161
2022-11-25T20:53:54.899Z,5.600586
2022-11-25T20:57:20.107Z,5.580444
2022-11-25T21:00:45.381Z,5.610657
2022-11-25T21:04:10.645Z,5.600586
2022-11-25T21:07:35.847Z,5.640869
2022-11-25T21:11:01.069Z,5.65094
2022-11-25T21:14:26.281Z,5.630798
2022-11-25T21:17:51.488Z,5.610657
2022-11-25T21:21:16.782Z,5.630798
2022-11-25T21:24:41.972Z,5.640869
2022-11-25T21:28:07.187Z,5.640869
2022-11-25T21:31:32.454Z,5.711365
2022-11-25T21:34:57.618Z,5.681152
2022-11-25T21:38:22.845Z,5.711365
2022-11-25T21:41:48.049Z,5.751648
2022-11-25T21:45:13.286Z,5.741577
2022-11-25T21:48:38.470Z,5.822144
2022-11-25T21:52:03.686Z,5.812073
2022-11-25T21:55:28.925Z,5.862427
2022-11-25T21:58:54.113Z,5.892639
2022-11-25T22:02:19.313Z,5.90271
2022-11-25T22:05:44.532Z,5.90271
2022-11-25T22:09:09.735Z,5.892639
2022-11-25T22:12:39.668Z,5.832214
2022-11-25T22:16:00.265Z,5.78186
2022-11-25T22:19:25.374Z,5.711365
2022-11-25T22:22:50.609Z,5.671082
2022-11-25T22:26:15.803Z,5.600586
2022-11-25T22:29:41.063Z,5.610657
2022-11-25T22:33:06.249Z,5.671082
2022-11-25T22:36:31.449Z,5.640869
2022-11-25T22:39:56.666Z,5.65094
2022-11-25T22:43:21.883Z,5.610657
2022-11-25T22:46:47.117Z,5.630798
2022-11-25T22:50:12.308Z,5.65094
2022-11-25T22:53:37.509Z,5.65094
2022-11-25T22:57:02.728Z,5.681152
2022-11-25T23:00:27.928Z,5.711365
2022-11-25T23:03:53.185Z,5.721436
2022-11-25T23:07:18.402Z,5.681152
2022-11-25T23:10:43.584Z,5.681152
2022-11-25T23:14:08.776Z,5.711365
2022-11-25T23:17:34.014Z,5.741577
2022-11-25T23:20:59.286Z,5.741577
2022-11-25T23:24:24.469Z,5.761719
2022-11-25T23:27:49.701Z,5.741577
2022-11-25T23:31:14.970Z,5.721436
2022-11-25T23:34:40.374Z,5.711365
2022-11-25T23:38:05.382Z,5.681152
2022-11-25T23:41:30.578Z,5.751648
2022-11-25T23:44:55.801Z,5.791931
2022-11-25T23:48:21.017Z,5.862427
2022-11-25T23:51:46.230Z,5.90271
2022-11-25T23:55:11.481Z,5.862427
2022-11-25T23:58:36.662Z,5.862427
